Point Clair, Louisiana
Current Conditions -  °F | °C
As of 9:55 AM on Friday 19 Dec 2014 (Local Time) from KL38 Reporting Station
Overcast Overcast  
Wind Chill: 58°   Ceiling: 2200
Heat Index: 58°   Visibility: 10mi
Dew Point: 55°   Wind: 8mph
Humidity: 91%   Direction: 80°E
Pressure: 30.12"   Gusts: NA
Location:  30.215°N, 91.1157°W
Report Text: KL38 191555Z AUTO 08007KT 10SM OVC022 14/13 A3012 RMK AO2 T01430129
Loading
Personal Weather Stations






























Interactive Weather Map New forecast layout! Learn more

10-Day Weather Forecast

Advertisements
Track Severe Weather on mobile